Time;durP1;ratioP1;P1;durP2;ratioP2;P2;SDS_P1;SDS_P2;PMS_P1;PMS_P2;Temp;Humidity;BMP_temperature;BMP_pressure;BME280_temperature;BME280_humidity;BME280_pressure;Samples;Min_cycle;Max_cycle;Signal;HPM_P1;HPM_P2
2022/03/22 00:00:46;;;;;;;22.10;14.57;;;4.00;47.70;;;;;;5053042;28;20241;-63
2022/03/22 00:03:14;;;;;;;25.70;14.00;;;4.00;47.60;;;;;;5058365;28;20228;-63
2022/03/22 00:05:42;;;;;;;19.38;13.32;;;4.00;47.60;;;;;;5073018;28;20628;-68
2022/03/22 00:08:09;;;;;;;21.05;14.57;;;4.00;47.40;;;;;;5067949;28;20551;-63
2022/03/22 00:10:37;;;;;;;23.23;13.23;;;4.00;46.90;;;;;;5053225;28;20202;-63
2022/03/22 00:13:07;;;;;;;19.40;13.75;;;4.00;46.50;;;;;;5055896;28;20178;-64
2022/03/22 00:15:34;;;;;;;25.73;14.68;;;3.90;46.90;;;;;;5072855;28;20276;-65
2022/03/22 00:18:02;;;;;;;19.08;12.65;;;3.90;47.40;;;;;;5070147;28;20190;-64
2022/03/22 00:20:29;;;;;;;20.55;14.25;;;3.90;47.70;;;;;;5052805;28;20221;-65
2022/03/22 00:22:56;;;;;;;18.58;12.85;;;3.90;47.50;;;;;;5053137;28;20540;-64
2022/03/22 00:25:23;;;;;;;24.40;15.48;;;4.00;47.40;;;;;;5072326;28;20198;-63
2022/03/22 00:27:53;;;;;;;19.98;13.60;;;3.90;47.50;;;;;;5072231;28;20641;-68
2022/03/22 00:30:23;;;;;;;17.40;12.65;;;3.90;47.50;;;;;;5032517;28;20590;-63
2022/03/22 00:32:53;;;;;;;21.20;13.30;;;3.90;46.70;;;;;;5032551;28;20622;-63
2022/03/22 00:35:23;;;;;;;23.50;13.55;;;3.80;46.10;;;;;;5072150;28;20190;-63
2022/03/22 00:37:51;;;;;;;20.05;13.80;;;3.70;46.00;;;;;;5061191;28;20187;-63
2022/03/22 00:40:19;;;;;;;20.45;13.95;;;3.60;46.70;;;;;;5052613;28;20202;-64
2022/03/22 00:42:47;;;;;;;31.05;14.85;;;3.60;47.00;;;;;;5072116;28;20546;-63
2022/03/22 00:45:18;;;;;;;23.50;13.48;;;3.50;47.10;;;;;;5060555;28;20237;-63
2022/03/22 00:47:48;;;;;;;24.08;14.18;;;3.40;47.70;;;;;;5052342;28;20194;-63
2022/03/22 00:50:17;;;;;;;23.40;14.27;;;3.30;47.10;;;;;;5063057;28;20236;-64
2022/03/22 00:52:44;;;;;;;20.95;13.20;;;3.30;46.80;;;;;;5072197;28;20714;-63
2022/03/22 00:55:13;;;;;;;19.77;12.95;;;3.20;47.40;;;;;;5061893;28;20602;-63
2022/03/22 00:57:41;;;;;;;22.48;14.45;;;3.20;48.30;;;;;;5052352;28;20347;-64
2022/03/22 01:00:11;;;;;;;18.60;12.57;;;3.10;48.20;;;;;;5060407;28;20204;-63
2022/03/22 01:02:40;;;;;;;25.13;17.17;;;3.10;48.80;;;;;;5065753;28;20482;-64
2022/03/22 01:05:11;;;;;;;22.45;15.63;;;3.00;49.20;;;;;;5052136;28;20223;-63
2022/03/22 01:07:40;;;;;;;18.40;14.02;;;3.00;49.60;;;;;;5057595;28;20553;-63
2022/03/22 01:10:09;;;;;;;18.83;13.07;;;3.00;49.60;;;;;;5072042;28;20209;-64
2022/03/22 01:12:39;;;;;;;19.58;13.30;;;3.00;49.80;;;;;;5066888;28;20182;-63
2022/03/22 01:15:10;;;;;;;18.65;13.35;;;3.00;49.40;;;;;;5051958;28;20205;-63
2022/03/22 01:17:37;;;;;;;22.92;13.43;;;3.00;49.40;;;;;;5056547;28;20189;-64
2022/03/22 01:20:10;;;;;;;30.42;15.02;;;3.00;48.90;;;;;;5071717;28;20223;-63
2022/03/22 01:22:39;;;;;;;19.08;12.90;;;3.00;49.40;;;;;;5067937;28;20187;-64
2022/03/22 01:25:09;;;;;;;20.77;13.07;;;2.90;49.50;;;;;;5051788;28;20703;-64
2022/03/22 01:27:36;;;;;;;25.58;15.80;;;2.90;50.00;;;;;;5060662;28;20529;-63
2022/03/22 01:30:05;;;;;;;26.00;16.52;;;2.80;49.60;;;;;;5071808;28;20216;-64
2022/03/22 01:32:32;;;;;;;19.73;12.52;;;2.80;49.90;;;;;;5063651;28;20649;-63
2022/03/22 01:34:59;;;;;;;18.10;14.15;;;2.80;49.90;;;;;;5052098;28;20198;-63
2022/03/22 01:37:26;;;;;;;22.17;15.40;;;2.80;50.00;;;;;;5068387;28;20182;-63
2022/03/22 01:39:54;;;;;;;21.38;14.63;;;2.80;49.60;;;;;;5071696;28;20243;-63
2022/03/22 01:42:21;;;;;;;17.15;13.60;;;2.70;49.40;;;;;;5055665;28;20657;-63
2022/03/22 01:44:48;;;;;;;21.80;12.43;;;2.70;49.20;;;;;;5062403;28;20339;-64
2022/03/22 01:47:18;;;;;;;19.10;12.32;;;2.70;49.30;;;;;;5072022;28;20190;-64
2022/03/22 01:49:45;;;;;;;22.55;13.35;;;2.60;49.40;;;;;;5065211;28;20187;-63
2022/03/22 01:52:15;;;;;;;20.98;12.52;;;2.60;49.60;;;;;;5057802;28;20194;-63
2022/03/22 01:54:43;;;;;;;18.85;13.32;;;2.60;49.10;;;;;;5072566;28;20214;-63
2022/03/22 01:57:11;;;;;;;18.63;13.50;;;2.50;49.10;;;;;;5055639;28;20194;-63
2022/03/22 01:59:38;;;;;;;20.38;12.40;;;2.40;49.20;;;;;;5055793;28;20194;-64
2022/03/22 02:07:38;;;;;;;20.05;13.18;;;2.10;50.90;;;;;;5055257;28;20190;-63
2022/03/22 02:10:06;;;;;;;20.60;13.10;;;2.10;51.00;;;;;;5057830;28;20182;-63
2022/03/22 02:12:34;;;;;;;19.20;13.75;;;2.20;51.80;;;;;;5075078;28;20200;-63
2022/03/22 02:15:01;;;;;;;22.05;12.85;;;2.20;51.40;;;;;;5072352;28;20260;-63
2022/03/22 02:17:28;;;;;;;19.88;12.15;;;2.20;51.10;;;;;;5055240;28;20194;-63
2022/03/22 02:19:57;;;;;;;17.77;11.35;;;2.30;51.40;;;;;;5063630;28;20303;-63
2022/03/22 02:22:32;;;;;;;19.08;12.18;;;2.20;50.90;;;;;;5075056;28;20290;-63
2022/03/22 02:25:01;;;;;;;23.13;10.68;;;2.20;51.00;;;;;;5064793;28;20240;-63
2022/03/22 02:27:34;;;;;;;18.65;11.88;;;2.10;51.50;;;;;;5054778;28;20265;-63
2022/03/22 02:30:01;;;;;;;18.88;11.40;;;2.10;51.80;;;;;;5064711;28;20283;-63
2022/03/22 02:32:28;;;;;;;17.23;11.60;;;2.00;52.20;;;;;;5072363;28;20722;-63
2022/03/22 02:34:55;;;;;;;18.02;11.38;;;2.00;52.50;;;;;;5074601;28;20718;-63
2022/03/22 02:37:22;;;;;;;16.27;11.32;;;2.00;52.60;;;;;;5066540;28;20218;-63
2022/03/22 02:39:48;;;;;;;22.40;11.93;;;2.00;52.30;;;;;;5062654;28;20221;-63
2022/03/22 02:42:17;;;;;;;17.70;12.00;;;2.00;52.10;;;;;;5068253;28;20187;-63
2022/03/22 02:44:44;;;;;;;17.05;12.18;;;2.00;51.90;;;;;;5055291;28;20214;-63
2022/03/22 02:47:11;;;;;;;16.52;10.27;;;2.00;51.60;;;;;;5058248;28;20523;-63
2022/03/22 02:49:39;;;;;;;18.35;14.13;;;2.00;51.40;;;;;;5067751;28;20190;-63
2022/03/22 02:52:07;;;;;;;19.35;10.25;;;1.90;50.30;;;;;;5057640;28;20228;-63
2022/03/22 02:54:34;;;;;;;18.30;12.15;;;1.80;49.40;;;;;;5074610;28;20200;-64
2022/03/22 02:57:01;;;;;;;16.38;10.85;;;1.60;49.90;;;;;;5067621;28;20198;-63
2022/03/22 02:59:29;;;;;;;19.90;12.38;;;1.50;50.30;;;;;;5057404;28;20235;-63
2022/03/22 03:01:57;;;;;;;15.82;9.75;;;1.40;50.20;;;;;;5074147;28;20190;-63
2022/03/22 03:04:24;;;;;;;14.00;10.13;;;1.40;50.50;;;;;;5070203;28;20214;-63
2022/03/22 03:06:51;;;;;;;17.15;9.80;;;1.40;51.10;;;;;;5053997;28;20194;-63
2022/03/22 03:09:18;;;;;;;15.35;11.13;;;1.40;51.00;;;;;;5056665;28;20244;-63
2022/03/22 03:11:45;;;;;;;18.48;10.98;;;1.30;51.60;;;;;;5074522;28;20547;-63
2022/03/22 03:16:59;;;;;;;21.50;10.93;;;1.30;52.10;;;;;;5054021;28;20193;-63
2022/03/22 03:19:26;;;;;;;17.65;10.90;;;1.40;52.40;;;;;;5057518;28;20189;-63
2022/03/22 03:21:53;;;;;;;21.20;11.10;;;1.30;51.80;;;;;;5074127;28;20262;-63
2022/03/22 03:24:20;;;;;;;19.45;10.40;;;1.30;51.70;;;;;;5071921;28;20190;-63
2022/03/22 03:26:47;;;;;;;16.90;11.43;;;1.20;51.50;;;;;;5055688;28;20191;-63
2022/03/22 03:29:14;;;;;;;17.30;10.88;;;1.20;52.20;;;;;;5053390;28;20275;-63
2022/03/22 03:31:41;;;;;;;18.73;11.25;;;1.20;52.60;;;;;;5054129;28;20205;-64
2022/03/22 03:34:10;;;;;;;16.10;10.43;;;1.20;52.60;;;;;;5053426;28;20332;-63
2022/03/22 03:36:37;;;;;;;19.63;12.77;;;1.10;52.10;;;;;;5053509;28;20221;-63
2022/03/22 03:39:04;;;;;;;22.35;12.20;;;1.20;52.40;;;;;;5067583;28;20613;-65
2022/03/22 03:47:11;;;;;;;16.92;9.82;;;1.10;52.70;;;;;;5036021;28;20244;-63
2022/03/22 03:49:42;;;;;;;14.32;9.65;;;1.00;54.00;;;;;;5063546;28;20186;-63
2022/03/22 03:52:11;;;;;;;15.82;9.25;;;1.10;54.00;;;;;;5054493;28;20206;-63
2022/03/22 03:54:39;;;;;;;15.73;10.05;;;1.10;53.90;;;;;;5073131;28;20217;-63
2022/03/22 03:57:06;;;;;;;19.50;10.27;;;1.10;53.80;;;;;;5071857;28;20239;-63
2022/03/22 03:59:34;;;;;;;16.98;12.18;;;1.10;53.70;;;;;;5060768;28;20190;-63
2022/03/22 04:02:01;;;;;;;14.15;9.18;;;1.10;53.50;;;;;;5073210;28;20229;-69
2022/03/22 04:04:28;;;;;;;20.55;13.20;;;1.10;53.10;;;;;;5072672;28;20189;-63
2022/03/22 04:06:57;;;;;;;17.83;10.40;;;1.00;52.90;;;;;;5073251;28;20193;-63
2022/03/22 04:09:24;;;;;;;20.90;11.18;;;1.00;52.90;;;;;;5060488;28;20186;-63
2022/03/22 04:11:51;;;;;;;16.88;11.07;;;1.00;53.10;;;;;;5072846;28;20198;-63
2022/03/22 04:14:18;;;;;;;25.67;11.82;;;1.10;53.90;;;;;;5055014;28;20218;-63
2022/03/22 04:16:46;;;;;;;17.73;11.50;;;1.10;54.20;;;;;;5053048;28;20225;-63
2022/03/22 04:19:13;;;;;;;18.35;12.23;;;1.10;54.20;;;;;;5063655;28;20232;-62
2022/03/22 04:21:40;;;;;;;19.52;10.85;;;1.20;54.40;;;;;;5067971;28;20186;-63
2022/03/22 04:24:10;;;;;;;19.08;11.20;;;1.20;53.20;;;;;;5072819;28;20239;-63
2022/03/22 04:26:39;;;;;;;22.08;13.25;;;1.00;52.70;;;;;;5058266;28;20191;-63
2022/03/22 04:34:38;;;;;;;15.98;10.20;;;0.90;53.00;;;;;;5058339;28;20715;-63
2022/03/22 04:37:06;;;;;;;15.85;10.65;;;0.90;52.60;;;;;;5072904;28;20190;-63
2022/03/22 04:39:35;;;;;;;16.73;11.45;;;0.90;52.10;;;;;;5070446;28;20251;-63
2022/03/22 04:42:04;;;;;;;19.83;11.20;;;0.80;52.20;;;;;;5072605;28;20208;-63
2022/03/22 04:44:31;;;;;;;17.70;10.23;;;0.70;52.60;;;;;;5068067;28;20241;-64
2022/03/22 04:46:59;;;;;;;16.60;9.95;;;0.70;53.00;;;;;;5052508;28;20197;-63
2022/03/22 04:49:27;;;;;;;18.02;12.35;;;0.60;53.60;;;;;;5055414;28;20212;-63
2022/03/22 04:57:26;;;;;;;18.48;10.57;;;0.60;54.50;;;;;;5052530;28;20391;-63
2022/03/22 04:59:54;;;;;;;16.38;10.27;;;0.70;55.10;;;;;;5058373;28;20194;-63
2022/03/22 05:02:21;;;;;;;15.50;10.13;;;0.70;54.40;;;;;;5071883;28;20234;-64
2022/03/22 05:04:48;;;;;;;26.77;16.75;;;0.70;54.40;;;;;;5066712;28;20240;-63
2022/03/22 05:07:15;;;;;;;16.58;11.07;;;0.70;55.10;;;;;;5052517;28;20927;-63
2022/03/22 05:09:43;;;;;;;17.98;11.63;;;0.70;55.10;;;;;;5056632;28;20213;-63
2022/03/22 05:12:13;;;;;;;19.63;11.15;;;0.80;55.10;;;;;;5071966;28;20193;-63
2022/03/22 05:14:41;;;;;;;14.13;10.23;;;0.80;55.50;;;;;;5067878;28;20202;-62
2022/03/22 05:17:11;;;;;;;17.88;12.10;;;0.80;55.10;;;;;;5052476;28;20285;-63
2022/03/22 05:19:39;;;;;;;17.17;11.07;;;0.80;54.50;;;;;;5055495;28;20200;-64
2022/03/22 05:22:07;;;;;;;19.85;10.60;;;0.70;54.40;;;;;;5072285;28;20189;-63
2022/03/22 05:24:34;;;;;;;17.95;11.30;;;0.70;54.60;;;;;;5074419;28;20209;-62
2022/03/22 05:27:03;;;;;;;19.42;10.70;;;0.70;54.20;;;;;;5064740;28;20647;-62
2022/03/22 05:29:32;;;;;;;16.55;11.65;;;0.60;52.90;;;;;;5058759;28;20637;-63
2022/03/22 05:32:00;;;;;;;19.75;11.43;;;0.50;52.40;;;;;;5076474;28;20189;-62
2022/03/22 05:34:27;;;;;;;15.10;10.60;;;0.50;53.00;;;;;;5065461;28;20210;-62
2022/03/22 05:36:54;;;;;;;17.77;11.02;;;0.50;53.00;;;;;;5064755;28;20185;-63
2022/03/22 05:39:21;;;;;;;19.38;10.57;;;0.50;53.50;;;;;;5076214;28;20275;-66
2022/03/22 05:41:48;;;;;;;15.32;9.90;;;0.60;53.30;;;;;;5067762;28;20641;-62
2022/03/22 05:44:17;;;;;;;19.55;11.13;;;0.40;52.50;;;;;;5052632;28;20673;-63
2022/03/22 05:46:44;;;;;;;20.33;10.93;;;0.40;51.90;;;;;;5054013;28;20194;-62
2022/03/22 05:49:13;;;;;;;15.48;10.73;;;0.30;52.30;;;;;;5054020;28;20637;-62
2022/03/22 05:51:40;;;;;;;18.60;10.38;;;0.40;52.50;;;;;;5053732;28;20205;-62
2022/03/22 05:54:07;;;;;;;15.45;10.52;;;0.40;53.20;;;;;;5053706;28;20195;-62
2022/03/22 05:56:34;;;;;;;16.13;10.95;;;0.40;54.10;;;;;;5055674;28;20272;-65
2022/03/22 05:59:01;;;;;;;17.50;10.32;;;0.50;55.00;;;;;;5056274;28;20198;-63
2022/03/22 06:01:29;;;;;;;20.30;10.48;;;0.50;55.00;;;;;;5053690;28;20240;-62
2022/03/22 06:03:57;;;;;;;17.92;9.65;;;0.70;55.60;;;;;;5058961;28;20191;-62
2022/03/22 06:06:24;;;;;;;24.75;14.07;;;0.70;55.60;;;;;;5054192;28;20281;-62
2022/03/22 06:08:51;;;;;;;19.33;12.07;;;0.80;55.60;;;;;;5053510;28;20194;-64
2022/03/22 06:11:19;;;;;;;16.42;9.90;;;0.90;55.80;;;;;;5049947;28;20194;-62
2022/03/22 06:13:46;;;;;;;15.65;10.20;;;1.00;55.90;;;;;;5053699;28;20194;-62
2022/03/22 06:16:13;;;;;;;15.80;10.57;;;1.10;56.20;;;;;;5053694;28;20218;-62
2022/03/22 06:18:41;;;;;;;16.13;10.10;;;1.30;56.70;;;;;;5056953;28;20240;-63
2022/03/22 06:21:08;;;;;;;20.33;11.30;;;1.50;56.80;;;;;;5053707;28;20194;-63
2022/03/22 06:23:35;;;;;;;19.15;11.35;;;1.70;56.70;;;;;;5053801;28;20195;-63
2022/03/22 06:26:02;;;;;;;20.52;13.38;;;1.80;56.90;;;;;;5053652;28;20194;-63
2022/03/22 06:28:29;;;;;;;19.98;13.05;;;2.00;56.20;;;;;;5058330;28;20273;-63
2022/03/22 06:30:57;;;;;;;24.35;14.45;;;2.20;56.70;;;;;;5053467;28;20191;-63
2022/03/22 06:33:24;;;;;;;21.20;12.93;;;2.40;56.80;;;;;;5052951;28;20219;-63
2022/03/22 06:35:52;;;;;;;17.40;11.82;;;2.50;55.60;;;;;;5053271;28;20218;-63
2022/03/22 06:38:20;;;;;;;19.98;11.38;;;2.60;55.50;;;;;;5049565;28;20230;-62
2022/03/22 06:40:49;;;;;;;20.67;11.45;;;2.70;56.60;;;;;;5054004;28;20229;-62
2022/03/22 06:43:16;;;;;;;19.45;11.90;;;3.00;56.50;;;;;;5054118;28;20190;-63
2022/03/22 06:45:44;;;;;;;18.40;11.07;;;3.10;55.30;;;;;;5055676;28;20277;-63
2022/03/22 06:48:11;;;;;;;23.63;13.50;;;3.10;54.60;;;;;;5056756;28;20186;-63
2022/03/22 06:50:39;;;;;;;21.55;12.05;;;3.40;55.30;;;;;;5050128;28;20210;-63
2022/03/22 06:53:09;;;;;;;18.52;11.63;;;3.70;55.30;;;;;;5053025;28;20614;-64
2022/03/22 06:55:37;;;;;;;17.60;11.75;;;4.00;55.60;;;;;;5052974;28;20245;-63
2022/03/22 06:58:05;;;;;;;18.52;12.25;;;4.40;54.80;;;;;;5053055;28;20218;-63
2022/03/22 07:00:32;;;;;;;17.63;11.88;;;4.80;53.70;;;;;;5052344;28;20222;-63
2022/03/22 07:03:00;;;;;;;13.07;9.98;;;5.20;52.60;;;;;;5049747;28;20622;-64
2022/03/22 07:05:28;;;;;;;18.02;9.98;;;5.60;51.60;;;;;;5053039;28;20213;-63
2022/03/22 07:07:56;;;;;;;11.30;9.15;;;6.20;52.20;;;;;;5053930;28;20195;-63
2022/03/22 07:10:24;;;;;;;12.75;8.50;;;7.00;49.40;;;;;;5053510;28;20226;-63
2022/03/22 07:12:53;;;;;;;15.20;9.48;;;8.00;48.10;;;;;;5054053;28;20487;-63
2022/03/22 07:15:27;;;;;;;13.57;10.40;;;9.00;49.10;;;;;;5053379;28;20301;-64
2022/03/22 07:17:54;;;;;;;16.05;10.05;;;10.50;45.80;;;;;;5053298;28;20181;-64
2022/03/22 07:20:21;;;;;;;19.58;11.20;;;12.10;40.70;;;;;;5052498;28;20205;-63
2022/03/22 07:22:48;;;;;;;12.63;9.82;;;13.90;40.20;;;;;;5047462;28;20273;-64
2022/03/22 07:25:15;;;;;;;15.85;11.25;;;16.10;34.10;;;;;;5054989;28;20222;-64
2022/03/22 07:27:44;;;;;;;15.85;10.82;;;17.90;31.50;;;;;;5052401;28;20187;-65
2022/03/22 07:30:12;;;;;;;14.05;10.57;;;19.20;28.20;;;;;;5046083;28;20255;-64
2022/03/22 07:32:39;;;;;;;16.92;11.68;;;20.40;26.00;;;;;;5052575;28;20221;-64
2022/03/22 07:35:09;;;;;;;14.10;11.43;;;21.50;24.30;;;;;;5053044;28;20276;-66
2022/03/22 07:37:37;;;;;;;12.60;10.67;;;22.70;23.00;;;;;;5053423;28;20536;-65
2022/03/22 07:40:06;;;;;;;13.30;11.03;;;23.90;22.10;;;;;;5051892;28;20956;-64
2022/03/22 07:42:34;;;;;;;16.37;11.13;;;25.10;21.00;;;;;;5052113;28;20432;-64
2022/03/22 07:45:05;;;;;;;13.67;11.40;;;26.40;19.60;;;;;;5051361;28;20440;-65
2022/03/22 07:47:33;;;;;;;16.07;12.30;;;27.70;19.40;;;;;;5052074;28;20492;-64
2022/03/22 07:53:01;;;;;;;13.53;11.70;;;29.80;16.20;;;;;;5052245;28;20420;-64
2022/03/22 07:55:29;;;;;;;13.60;12.10;;;30.80;14.70;;;;;;5049364;28;20533;-66
2022/03/22 07:57:57;;;;;;;13.23;11.20;;;31.50;13.50;;;;;;5052010;28;20530;-65
2022/03/22 08:00:26;;;;;;;13.30;11.10;;;32.30;13.30;;;;;;5051685;28;20444;-66
2022/03/22 08:02:55;;;;;;;13.53;11.40;;;33.20;12.90;;;;;;5051513;28;20433;-67
2022/03/22 08:05:22;;;;;;;15.73;12.83;;;34.10;13.90;;;;;;5047529;28;20486;-65
2022/03/22 08:07:49;;;;;;;14.20;12.07;;;35.00;12.60;;;;;;5052151;28;20441;-66
2022/03/22 08:10:16;;;;;;;11.63;10.43;;;35.80;11.60;;;;;;5051631;28;20913;-65
2022/03/22 08:12:44;;;;;;;13.10;11.70;;;36.60;12.10;;;;;;5050481;28;20528;-72
2022/03/22 08:15:12;;;;;;;12.60;10.27;;;37.40;11.00;;;;;;5051290;28;20522;-66
2022/03/22 08:17:41;;;;;;;13.37;11.90;;;38.00;9.90;;;;;;5051189;28;20519;-63
2022/03/22 08:20:09;;;;;;;14.07;11.70;;;38.50;9.00;;;;;;5051537;28;20441;-67
2022/03/22 08:22:50;;;;;;;12.70;11.27;;;39.10;9.90;;;;;;5053055;28;20448;-63
2022/03/22 08:25:19;;;;;;;15.70;11.73;;;39.60;8.90;;;;;;5053438;28;20824;-63
2022/03/22 08:27:46;;;;;;;12.40;11.03;;;40.00;8.10;;;;;;5051089;28;20962;-64
2022/03/22 08:30:13;;;;;;;12.60;11.40;;;40.30;7.80;;;;;;5051529;28;20439;-64
2022/03/22 08:32:43;;;;;;;11.97;10.50;;;40.60;7.70;;;;;;5051285;28;20440;-63
2022/03/22 08:35:10;;;;;;;15.10;11.20;;;41.10;7.30;;;;;;5051287;28;20484;-64
2022/03/22 08:37:38;;;;;;;12.90;11.80;;;41.60;6.70;;;;;;5052360;28;20494;-63
2022/03/22 08:40:07;;;;;;;12.17;10.90;;;41.70;6.50;;;;;;5051337;28;20919;-65
2022/03/22 08:42:34;;;;;;;11.70;10.50;;;41.90;6.90;;;;;;5050993;28;20441;-64
2022/03/22 08:45:03;;;;;;;15.07;11.40;;;42.40;6.70;;;;;;5050825;28;20566;-65
2022/03/22 08:47:31;;;;;;;11.20;10.20;;;42.90;6.20;;;;;;5056585;28;20516;-64
2022/03/22 08:49:59;;;;;;;10.27;9.27;;;43.30;5.10;;;;;;5051081;28;20498;-70
2022/03/22 08:52:26;;;;;;;11.30;9.80;;;43.40;5.00;;;;;;5051554;28;20520;-67
2022/03/22 08:54:53;;;;;;;12.70;9.90;;;43.40;5.60;;;;;;5049646;28;20520;-64
2022/03/22 08:57:20;;;;;;;10.07;9.07;;;44.10;5.80;;;;;;5050778;28;20858;-64
2022/03/22 08:59:47;;;;;;;9.37;8.47;;;44.90;5.30;;;;;;5050392;28;20472;-64
2022/03/22 09:02:14;;;;;;;11.10;8.10;;;45.70;5.50;;;;;;5051384;28;20441;-65
2022/03/22 09:07:27;;;;;;;9.10;8.20;;;46.70;3.60;;;;;;5051100;28;20437;-64
2022/03/22 09:09:54;;;;;;;10.27;9.17;;;46.90;3.90;;;;;;5049672;28;20520;-65
2022/03/22 09:12:20;;;;;;;10.37;9.47;;;47.40;4.20;;;;;;5050905;28;20962;-70
2022/03/22 09:14:50;;;;;;;10.03;8.60;;;47.70;3.20;;;;;;5050640;28;20849;-64
2022/03/22 09:17:16;;;;;;;9.97;9.07;;;48.10;3.40;;;;;;5049463;28;20476;-64
2022/03/22 09:19:43;;;;;;;11.40;9.67;;;48.50;3.80;;;;;;5052934;28;20508;-64
2022/03/22 09:22:11;;;;;;;9.70;8.70;;;48.90;3.20;;;;;;5051039;28;20524;-65
2022/03/22 09:24:39;;;;;;;11.23;10.23;;;49.20;3.00;;;;;;5050913;28;20441;-65
2022/03/22 09:27:06;;;;;;;11.97;9.60;;;49.50;3.10;;;;;;5050426;28;20495;-66
2022/03/22 09:29:33;;;;;;;11.60;10.50;;;49.90;3.10;;;;;;5055888;28;20498;-64
2022/03/22 09:32:00;;;;;;;10.97;9.70;;;50.20;2.90;;;;;;5050991;28;20495;-65
2022/03/22 09:34:28;;;;;;;10.47;9.30;;;50.30;2.30;;;;;;5050090;28;20460;-65
2022/03/22 09:36:55;;;;;;;12.10;11.00;;;50.40;2.60;;;;;;5050561;28;20889;-64
2022/03/22 09:39:22;;;;;;;11.83;10.77;;;50.80;3.30;;;;;;5050613;28;20526;-64
2022/03/22 09:41:52;;;;;;;18.17;11.13;;;51.10;2.70;;;;;;5050298;28;20843;-72
2022/03/22 09:44:19;;;;;;;12.77;11.00;;;51.40;2.70;;;;;;5050266;28;20999;-65
2022/03/22 09:46:48;;;;;;;11.60;10.40;;;51.60;2.50;;;;;;5053481;28;20459;-65
2022/03/22 09:49:17;;;;;;;11.83;10.57;;;51.80;2.60;;;;;;5050382;28;20436;-65
2022/03/22 09:51:47;;;;;;;12.97;10.93;;;52.00;2.40;;;;;;5049519;28;20444;-65
2022/03/22 09:54:15;;;;;;;11.03;10.03;;;52.30;2.40;;;;;;5049776;28;20495;-64
2022/03/22 09:56:42;;;;;;;11.10;10.00;;;52.60;2.30;;;;;;5048359;28;20476;-65
2022/03/22 09:59:11;;;;;;;12.10;10.83;;;52.80;2.50;;;;;;5050487;28;20532;-65
2022/03/22 10:01:38;;;;;;;11.53;10.43;;;53.00;2.20;;;;;;5046505;28;20531;-65
2022/03/22 10:04:07;;;;;;;10.97;9.87;;;53.20;2.10;;;;;;5050840;28;20900;-65
2022/03/22 10:06:35;;;;;;;12.50;11.37;;;53.50;2.30;;;;;;5049287;28;20444;-65
2022/03/22 10:09:05;;;;;;;12.60;11.43;;;53.60;1.80;;;;;;5051482;28;20521;-65
2022/03/22 10:11:36;;;;;;;12.20;11.00;;;53.60;1.80;;;;;;5053895;28;21015;-65
2022/03/22 10:14:04;;;;;;;11.70;10.50;;;53.60;2.10;;;;;;5053851;28;20836;-65
2022/03/22 10:16:33;;;;;;;15.37;11.20;;;53.80;2.20;;;;;;5054746;28;20802;-65
2022/03/22 10:19:00;;;;;;;13.23;11.90;;;54.00;1.90;;;;;;5053928;28;20452;-64
2022/03/22 10:21:28;;;;;;;12.63;11.43;;;54.00;1.70;;;;;;5053845;28;20494;-69
2022/03/22 10:23:56;;;;;;;11.80;10.70;;;54.10;1.50;;;;;;5053658;28;20864;-65
2022/03/22 10:26:33;;;;;;;13.77;12.57;;;54.20;1.60;;;;;;5049880;28;20435;-65
2022/03/22 10:29:00;;;;;;;12.80;11.60;;;54.20;1.40;;;;;;5053611;28;20514;-65
2022/03/22 10:31:40;;;;;;;13.90;11.43;;;54.30;1.50;;;;;;5053068;28;20436;-65
2022/03/22 10:34:07;;;;;;;13.33;12.10;;;54.40;1.50;;;;;;5056993;28;20503;-65
2022/03/22 10:36:36;;;;;;;13.47;11.80;;;54.60;1.60;;;;;;5054121;28;20516;-66
2022/03/22 10:39:06;;;;;;;11.07;9.97;;;54.70;1.70;;;;;;5054107;28;20444;-65
2022/03/22 10:41:38;;;;;;;14.80;12.27;;;54.70;1.80;;;;;;5054125;28;20492;-70
2022/03/22 10:44:07;;;;;;;15.50;12.20;;;54.70;1.30;;;;;;5052750;28;20787;-66
2022/03/22 10:46:35;;;;;;;11.83;10.63;;;54.40;1.00;;;;;;5049283;28;20515;-65
2022/03/22 10:49:09;;;;;;;12.00;10.90;;;54.40;1.60;;;;;;5054085;28;20460;-65
2022/03/22 10:51:40;;;;;;;12.40;11.20;;;54.50;1.60;;;;;;5053038;28;20519;-65
2022/03/22 10:54:08;;;;;;;14.70;11.60;;;54.50;1.60;;;;;;5053640;28;20472;-65
2022/03/22 10:56:35;;;;;;;14.60;10.63;;;54.70;1.30;;;;;;5051978;28;20441;-68
2022/03/22 10:59:03;;;;;;;11.73;10.53;;;54.90;1.00;;;;;;5053146;28;21001;-68
2022/03/22 11:01:30;;;;;;;11.87;10.77;;;55.10;1.10;;;;;;5053794;28;20855;-64
2022/03/22 11:03:58;;;;;;;12.00;10.80;;;55.30;1.10;;;;;;5050732;28;20479;-64
2022/03/22 11:06:33;;;;;;;12.37;11.30;;;55.30;1.00;;;;;;5053121;28;21002;-65
2022/03/22 11:09:01;;;;;;;12.23;11.23;;;55.40;1.10;;;;;;5049285;28;20501;-65
2022/03/22 11:11:30;;;;;;;13.90;12.30;;;55.40;1.20;;;;;;5052851;28;20440;-65
2022/03/22 11:13:57;;;;;;;12.63;11.53;;;55.40;1.20;;;;;;5051681;28;20439;-65
2022/03/22 11:16:27;;;;;;;13.70;12.43;;;55.40;1.00;;;;;;5052469;28;20535;-71
2022/03/22 11:18:56;;;;;;;13.70;11.27;;;55.30;1.00;;;;;;5052391;28;20448;-64
2022/03/22 11:21:23;;;;;;;13.50;12.20;;;54.90;1.00;;;;;;5051402;28;20432;-65
2022/03/22 11:23:52;;;;;;;12.73;11.43;;;54.70;1.20;;;;;;5052387;28;20476;-65
2022/03/22 11:26:23;;;;;;;12.43;11.13;;;54.70;1.20;;;;;;5054471;28;20485;-64
2022/03/22 11:28:51;;;;;;;13.00;11.97;;;55.00;1.20;;;;;;5051157;28;20534;-64
2022/03/22 11:31:21;;;;;;;12.43;11.23;;;55.00;1.30;;;;;;5052020;28;20444;-66
2022/03/22 11:42:18;;;;;;;10.03;9.07;;;54.70;1.00;;;;;;5049232;28;20428;-64
2022/03/22 11:44:56;;;;;;;10.57;9.63;;;54.50;1.00;;;;;;5047688;28;20872;-65
2022/03/22 11:47:23;;;;;;;11.20;10.13;;;54.80;1.10;;;;;;5051682;28;20516;-64
2022/03/22 11:49:53;;;;;;;9.90;9.00;;;55.00;1.00;;;;;;5042591;28;20495;-68
2022/03/22 11:52:22;;;;;;;12.00;10.90;;;55.10;1.00;;;;;;5048303;28;20441;-65
2022/03/22 11:55:02;;;;;;;10.43;9.47;;;55.30;1.00;;;;;;5050306;28;20441;-65
2022/03/22 11:57:41;;;;;;;9.43;7.60;;;55.10;1.00;;;;;;5050861;28;20421;-64
2022/03/22 12:00:11;;;;;;;9.73;8.50;;;55.10;1.00;;;;;;5051994;28;20764;-67
2022/03/22 12:02:40;;;;;;;9.50;8.50;;;54.90;1.00;;;;;;5052321;28;20432;-65
2022/03/22 12:05:08;;;;;;;9.37;8.57;;;54.60;1.00;;;;;;5052111;28;20938;-64
2022/03/22 12:07:37;;;;;;;11.03;10.03;;;54.40;1.00;;;;;;5053882;28;21037;-66
2022/03/22 12:12:58;;;;;;;7.97;7.17;;;54.30;1.00;;;;;;5051161;28;20441;-64
2022/03/22 12:15:25;;;;;;;9.10;8.27;;;54.40;1.00;;;;;;5051312;28;20437;-64
2022/03/22 12:17:53;;;;;;;9.50;8.60;;;54.50;1.00;;;;;;5052947;28;20433;-64
2022/03/22 12:20:23;;;;;;;8.97;8.23;;;54.40;1.00;;;;;;5051988;28;20778;-65
2022/03/22 12:22:51;;;;;;;9.33;8.40;;;54.30;1.00;;;;;;5049237;28;20429;-64
2022/03/22 12:25:21;;;;;;;9.17;8.30;;;54.20;1.00;;;;;;5051858;28;20444;-64
2022/03/22 12:27:53;;;;;;;8.50;7.70;;;54.00;1.00;;;;;;5051382;28;20507;-65
2022/03/22 12:30:21;;;;;;;9.33;8.30;;;53.70;1.00;;;;;;5052204;28;20441;-64
2022/03/22 12:32:51;;;;;;;9.43;8.63;;;53.20;1.00;;;;;;5054008;28;20471;-65
2022/03/22 12:35:18;;;;;;;9.83;8.93;;;52.90;1.00;;;;;;5071379;28;20871;-64
2022/03/22 12:37:45;;;;;;;9.90;9.00;;;52.50;1.00;;;;;;5062820;28;20461;-64
2022/03/22 12:40:13;;;;;;;8.63;7.83;;;51.80;1.00;;;;;;5053337;28;20520;-64
2022/03/22 12:42:41;;;;;;;9.53;8.63;;;51.30;1.00;;;;;;5053299;28;20868;-64
2022/03/22 12:45:10;;;;;;;10.60;9.60;;;50.70;1.00;;;;;;5053423;28;20524;-64
2022/03/22 12:47:38;;;;;;;9.07;8.17;;;50.30;1.00;;;;;;5053219;28;20590;-64
2022/03/22 12:50:11;;;;;;;9.30;8.57;;;50.10;1.00;;;;;;5053267;28;20476;-64
2022/03/22 12:52:38;;;;;;;11.50;9.97;;;49.90;1.00;;;;;;5052685;28;20429;-64
2022/03/22 12:55:29;;;;;;;10.53;9.53;;;49.20;1.00;;;;;;5053228;28;20479;-64
2022/03/22 12:57:58;;;;;;;10.57;9.67;;;48.00;1.00;;;;;;5053300;28;20483;-64
2022/03/22 13:00:28;;;;;;;11.00;9.93;;;46.20;1.00;;;;;;5053010;28;20445;-64
2022/03/22 13:02:55;;;;;;;11.20;10.10;;;45.20;1.30;;;;;;5053056;28;20475;-63
2022/03/22 13:05:27;;;;;;;9.50;8.70;;;44.60;1.40;;;;;;5052673;28;20451;-64
2022/03/22 13:07:54;;;;;;;12.00;10.80;;;43.70;1.40;;;;;;5052634;28;21022;-64
2022/03/22 13:13:18;;;;;;;11.73;10.60;;;41.80;2.30;;;;;;5053015;28;20420;-64
2022/03/22 13:15:47;;;;;;;10.97;9.87;;;40.40;2.50;;;;;;5052899;28;20437;-64
2022/03/22 13:18:30;;;;;;;11.97;10.67;;;39.00;2.80;;;;;;5052933;28;20498;-65
2022/03/22 13:21:01;;;;;;;10.50;8.73;;;37.50;3.10;;;;;;5052449;28;20477;-64
2022/03/22 13:23:29;;;;;;;10.57;9.00;;;36.10;3.70;;;;;;5052771;28;20473;-64
2022/03/22 13:25:56;;;;;;;13.83;9.87;;;35.00;4.10;;;;;;5052671;28;20437;-64
2022/03/22 13:28:24;;;;;;;10.73;9.70;;;34.00;4.60;;;;;;5052361;28;20571;-64